Terminal Aerodrome Forecast
Issued by NWS Wilmington, OH

Current Version | Previous Version | Text Only | Print | Product List | Glossary Off
Versions: 1 2 3 4 5 6 7 8 9 10 11 12 13 14 15 16 17 18 19 20

000
FTUS41 KILN 260800 AAA
TAFCMH
TAF AMD
KCMH 260802Z 2608/2706 16006KT P6SM SCT020 SCT040 BKN250
     FM261300 20012G20KT P6SM SCT025 BKN250
     FM261500 20012G22KT P6SM BKN035
     FM262000 20014G24KT P6SM VCTS BKN040CB
     FM270200 21012KT P6SM VCSH BKN040=

USA.gov is the U.S. government's official web portal to all federal, state and local government web resources and services.